Liberty, Kansas
Current Conditions -  °F | °C
As of 7:52 AM on Friday 19 Dec 2014 (Local Time) from KCFV Reporting Station
Haze Haze  
Wind Chill:   Ceiling: 800
Heat Index:   Visibility: 6mi
Dew Point:   Wind: 5mph
Humidity: 89%   Direction: 350°N
Pressure: 30.27"   Gusts: NA
Location:  37.16°N, 95.59°W
Report Text: KCFV 191352Z AUTO 35004KT 6SM BR OVC008 02/01 A3027 RMK AO2 SLP255 T00220006
Loading
Personal Weather Stations






























Interactive Weather Map New forecast layout! Learn more

10-Day Weather Forecast

Advertisements
Track Severe Weather on mobile